sensor_id;sensor_type;location;lat;lon;timestamp;P1;durP1;ratioP1;P2;durP2;ratioP2
7432;SDS011;32233;49.500;7.764;2023-02-26T00:00:07;13.30;;;6.37;;
7432;SDS011;32233;49.500;7.764;2023-02-26T00:02:38;13.00;;;6.27;;
7432;SDS011;32233;49.500;7.764;2023-02-26T00:05:05;15.37;;;6.30;;
7432;SDS011;32233;49.500;7.764;2023-02-26T00:07:32;12.43;;;5.27;;
7432;SDS011;32233;49.500;7.764;2023-02-26T00:09:58;10.13;;;4.53;;
7432;SDS011;32233;49.500;7.764;2023-02-26T00:12:27;5.40;;;3.43;;
7432;SDS011;32233;49.500;7.764;2023-02-26T00:14:54;7.00;;;3.27;;
7432;SDS011;32233;49.500;7.764;2023-02-26T00:17:25;6.10;;;3.27;;
7432;SDS011;32233;49.500;7.764;2023-02-26T00:20:07;3.33;;;2.40;;
7432;SDS011;32233;49.500;7.764;2023-02-26T00:22:35;3.93;;;2.50;;
7432;SDS011;32233;49.500;7.764;2023-02-26T00:25:02;7.20;;;3.30;;
7432;SDS011;32233;49.500;7.764;2023-02-26T00:27:28;6.93;;;3.90;;
7432;SDS011;32233;49.500;7.764;2023-02-26T00:29:55;7.70;;;3.73;;
7432;SDS011;32233;49.500;7.764;2023-02-26T00:32:22;4.77;;;3.50;;
7432;SDS011;32233;49.500;7.764;2023-02-26T00:34:49;5.70;;;2.33;;
7432;SDS011;32233;49.500;7.764;2023-02-26T00:37:21;7.47;;;2.70;;
7432;SDS011;32233;49.500;7.764;2023-02-26T00:40:00;5.07;;;1.80;;
7432;SDS011;32233;49.500;7.764;2023-02-26T00:42:34;6.67;;;2.00;;
7432;SDS011;32233;49.500;7.764;2023-02-26T00:45:01;2.63;;;1.40;;
7432;SDS011;32233;49.500;7.764;2023-02-26T00:47:32;3.13;;;1.40;;
7432;SDS011;32233;49.500;7.764;2023-02-26T00:50:23;5.10;;;1.90;;
7432;SDS011;32233;49.500;7.764;2023-02-26T00:55:39;5.27;;;1.80;;
7432;SDS011;32233;49.500;7.764;2023-02-26T00:58:05;4.13;;;1.60;;
7432;SDS011;32233;49.500;7.764;2023-02-26T01:00:32;3.80;;;1.63;;
7432;SDS011;32233;49.500;7.764;2023-02-26T01:02:59;2.80;;;1.47;;
7432;SDS011;32233;49.500;7.764;2023-02-26T01:05:26;3.33;;;2.00;;
7432;SDS011;32233;49.500;7.764;2023-02-26T01:08:12;2.20;;;1.53;;
7432;SDS011;32233;49.500;7.764;2023-02-26T01:10:55;3.63;;;1.60;;
7432;SDS011;32233;49.500;7.764;2023-02-26T01:13:22;3.50;;;1.50;;
7432;SDS011;32233;49.500;7.764;2023-02-26T01:15:51;2.10;;;1.30;;
7432;SDS011;32233;49.500;7.764;2023-02-26T01:18:29;4.53;;;1.77;;
7432;SDS011;32233;49.500;7.764;2023-02-26T01:21:03;4.37;;;1.33;;
7432;SDS011;32233;49.500;7.764;2023-02-26T01:23:34;3.13;;;1.47;;
7432;SDS011;32233;49.500;7.764;2023-02-26T01:26:06;3.73;;;1.53;;
7432;SDS011;32233;49.500;7.764;2023-02-26T01:28:41;3.43;;;1.50;;
7432;SDS011;32233;49.500;7.764;2023-02-26T01:31:10;4.37;;;1.30;;
7432;SDS011;32233;49.500;7.764;2023-02-26T01:33:52;5.10;;;1.50;;
7432;SDS011;32233;49.500;7.764;2023-02-26T01:36:27;3.83;;;1.37;;
7432;SDS011;32233;49.500;7.764;2023-02-26T01:39:04;2.70;;;1.50;;
7432;SDS011;32233;49.500;7.764;2023-02-26T01:41:46;4.47;;;2.10;;
7432;SDS011;32233;49.500;7.764;2023-02-26T01:44:19;2.70;;;1.37;;
7432;SDS011;32233;49.500;7.764;2023-02-26T01:49:25;4.07;;;1.33;;
7432;SDS011;32233;49.500;7.764;2023-02-26T01:51:53;4.87;;;1.40;;
7432;SDS011;32233;49.500;7.764;2023-02-26T01:54:28;3.93;;;1.60;;
7432;SDS011;32233;49.500;7.764;2023-02-26T01:57:16;4.07;;;1.70;;
7432;SDS011;32233;49.500;7.764;2023-02-26T01:59:44;4.27;;;1.57;;
7432;SDS011;32233;49.500;7.764;2023-02-26T02:02:15;3.57;;;1.40;;
7432;SDS011;32233;49.500;7.764;2023-02-26T02:04:45;4.87;;;1.43;;
7432;SDS011;32233;49.500;7.764;2023-02-26T02:07:13;3.93;;;1.40;;
7432;SDS011;32233;49.500;7.764;2023-02-26T02:09:40;4.53;;;1.40;;
7432;SDS011;32233;49.500;7.764;2023-02-26T02:17:52;3.37;;;1.37;;
7432;SDS011;32233;49.500;7.764;2023-02-26T02:20:42;3.20;;;1.60;;
7432;SDS011;32233;49.500;7.764;2023-02-26T02:23:29;5.23;;;1.40;;
7432;SDS011;32233;49.500;7.764;2023-02-26T02:26:16;3.70;;;1.30;;
7432;SDS011;32233;49.500;7.764;2023-02-26T02:29:07;5.00;;;1.93;;
7432;SDS011;32233;49.500;7.764;2023-02-26T02:35:22;4.30;;;1.20;;
7432;SDS011;32233;49.500;7.764;2023-02-26T02:38:04;3.20;;;1.60;;
7432;SDS011;32233;49.500;7.764;2023-02-26T02:40:38;3.30;;;1.40;;
7432;SDS011;32233;49.500;7.764;2023-02-26T02:43:12;3.13;;;1.20;;
7432;SDS011;32233;49.500;7.764;2023-02-26T02:45:45;3.13;;;1.47;;
7432;SDS011;32233;49.500;7.764;2023-02-26T02:48:16;3.13;;;1.60;;
7432;SDS011;32233;49.500;7.764;2023-02-26T02:50:52;4.33;;;1.30;;
7432;SDS011;32233;49.500;7.764;2023-02-26T02:53:32;3.73;;;1.50;;
7432;SDS011;32233;49.500;7.764;2023-02-26T02:56:08;3.27;;;1.30;;
7432;SDS011;32233;49.500;7.764;2023-02-26T02:58:46;3.53;;;1.70;;
7432;SDS011;32233;49.500;7.764;2023-02-26T03:01:17;4.77;;;1.50;;
7432;SDS011;32233;49.500;7.764;2023-02-26T03:03:58;5.80;;;1.40;;
7432;SDS011;32233;49.500;7.764;2023-02-26T03:06:36;4.13;;;1.60;;
7432;SDS011;32233;49.500;7.764;2023-02-26T03:09:04;7.17;;;1.50;;
7432;SDS011;32233;49.500;7.764;2023-02-26T03:11:32;2.43;;;1.40;;
7432;SDS011;32233;49.500;7.764;2023-02-26T03:14:00;3.73;;;1.27;;
7432;SDS011;32233;49.500;7.764;2023-02-26T03:16:39;7.33;;;1.63;;
7432;SDS011;32233;49.500;7.764;2023-02-26T03:22:12;7.13;;;1.50;;
7432;SDS011;32233;49.500;7.764;2023-02-26T03:25:42;6.40;;;1.50;;
7432;SDS011;32233;49.500;7.764;2023-02-26T03:30:57;5.33;;;1.30;;
7432;SDS011;32233;49.500;7.764;2023-02-26T03:36:27;4.33;;;1.30;;
7432;SDS011;32233;49.500;7.764;2023-02-26T03:41:50;5.33;;;1.67;;
7432;SDS011;32233;49.500;7.764;2023-02-26T03:44:26;5.13;;;1.63;;
7432;SDS011;32233;49.500;7.764;2023-02-26T03:47:02;2.53;;;1.30;;
7432;SDS011;32233;49.500;7.764;2023-02-26T03:49:47;3.97;;;1.50;;
7432;SDS011;32233;49.500;7.764;2023-02-26T03:52:26;4.00;;;1.60;;
7432;SDS011;32233;49.500;7.764;2023-02-26T03:55:18;2.60;;;1.50;;
7432;SDS011;32233;49.500;7.764;2023-02-26T03:57:56;6.17;;;1.90;;
7432;SDS011;32233;49.500;7.764;2023-02-26T04:01:01;5.13;;;1.47;;
7432;SDS011;32233;49.500;7.764;2023-02-26T04:03:37;2.60;;;1.40;;
7432;SDS011;32233;49.500;7.764;2023-02-26T04:06:09;5.57;;;2.00;;
7432;SDS011;32233;49.500;7.764;2023-02-26T04:08:37;6.43;;;1.80;;
7432;SDS011;32233;49.500;7.764;2023-02-26T04:13:34;3.93;;;1.60;;
7432;SDS011;32233;49.500;7.764;2023-02-26T04:16:02;4.90;;;1.83;;
7432;SDS011;32233;49.500;7.764;2023-02-26T04:18:29;4.23;;;1.90;;
7432;SDS011;32233;49.500;7.764;2023-02-26T04:20:56;4.13;;;1.87;;
7432;SDS011;32233;49.500;7.764;2023-02-26T04:23:23;4.17;;;2.20;;
7432;SDS011;32233;49.500;7.764;2023-02-26T04:25:49;3.50;;;2.00;;
7432;SDS011;32233;49.500;7.764;2023-02-26T04:28:16;8.37;;;2.13;;
7432;SDS011;32233;49.500;7.764;2023-02-26T04:30:43;4.27;;;2.10;;
7432;SDS011;32233;49.500;7.764;2023-02-26T04:33:11;4.17;;;1.83;;
7432;SDS011;32233;49.500;7.764;2023-02-26T04:35:39;5.90;;;2.20;;
7432;SDS011;32233;49.500;7.764;2023-02-26T04:38:07;5.93;;;2.40;;
7432;SDS011;32233;49.500;7.764;2023-02-26T04:40:33;4.57;;;2.23;;
7432;SDS011;32233;49.500;7.764;2023-02-26T04:43:00;5.50;;;2.30;;
7432;SDS011;32233;49.500;7.764;2023-02-26T04:45:32;5.53;;;2.30;;
7432;SDS011;32233;49.500;7.764;2023-02-26T04:47:59;5.47;;;2.50;;
7432;SDS011;32233;49.500;7.764;2023-02-26T04:50:26;3.33;;;2.00;;
7432;SDS011;32233;49.500;7.764;2023-02-26T04:52:52;4.90;;;2.13;;
7432;SDS011;32233;49.500;7.764;2023-02-26T04:55:19;7.50;;;2.60;;
7432;SDS011;32233;49.500;7.764;2023-02-26T04:57:46;8.57;;;2.27;;
7432;SDS011;32233;49.500;7.764;2023-02-26T05:00:12;5.03;;;2.10;;
7432;SDS011;32233;49.500;7.764;2023-02-26T05:02:40;5.97;;;2.40;;
7432;SDS011;32233;49.500;7.764;2023-02-26T05:05:07;5.53;;;2.67;;
7432;SDS011;32233;49.500;7.764;2023-02-26T05:07:34;6.87;;;2.97;;
7432;SDS011;32233;49.500;7.764;2023-02-26T05:10:00;6.20;;;2.70;;
7432;SDS011;32233;49.500;7.764;2023-02-26T05:12:27;7.63;;;2.53;;
7432;SDS011;32233;49.500;7.764;2023-02-26T05:14:53;8.03;;;2.57;;
7432;SDS011;32233;49.500;7.764;2023-02-26T05:17:20;5.30;;;3.40;;
7432;SDS011;32233;49.500;7.764;2023-02-26T05:19:46;5.67;;;3.50;;
7432;SDS011;32233;49.500;7.764;2023-02-26T05:22:14;4.67;;;2.97;;
7432;SDS011;32233;49.500;7.764;2023-02-26T05:24:40;5.80;;;3.10;;
7432;SDS011;32233;49.500;7.764;2023-02-26T05:27:07;3.33;;;2.90;;
7432;SDS011;32233;49.500;7.764;2023-02-26T05:29:37;6.20;;;3.03;;
7432;SDS011;32233;49.500;7.764;2023-02-26T05:32:04;6.80;;;3.30;;
7432;SDS011;32233;49.500;7.764;2023-02-26T05:34:31;7.00;;;2.90;;
7432;SDS011;32233;49.500;7.764;2023-02-26T05:36:57;5.17;;;2.90;;
7432;SDS011;32233;49.500;7.764;2023-02-26T05:39:24;6.77;;;3.30;;
7432;SDS011;32233;49.500;7.764;2023-02-26T05:41:50;4.07;;;3.13;;
7432;SDS011;32233;49.500;7.764;2023-02-26T05:44:18;6.33;;;3.50;;
7432;SDS011;32233;49.500;7.764;2023-02-26T05:46:44;7.77;;;3.20;;
7432;SDS011;32233;49.500;7.764;2023-02-26T05:49:11;5.70;;;3.10;;
7432;SDS011;32233;49.500;7.764;2023-02-26T05:51:37;5.50;;;2.80;;
7432;SDS011;32233;49.500;7.764;2023-02-26T05:54:04;4.83;;;2.87;;
7432;SDS011;32233;49.500;7.764;2023-02-26T05:56:31;4.20;;;3.00;;
7432;SDS011;32233;49.500;7.764;2023-02-26T05:58:57;5.50;;;2.80;;
7432;SDS011;32233;49.500;7.764;2023-02-26T06:01:24;5.40;;;3.07;;
7432;SDS011;32233;49.500;7.764;2023-02-26T06:03:50;4.67;;;3.57;;
7432;SDS011;32233;49.500;7.764;2023-02-26T06:06:17;5.87;;;3.00;;
7432;SDS011;32233;49.500;7.764;2023-02-26T06:08:44;5.00;;;3.23;;
7432;SDS011;32233;49.500;7.764;2023-02-26T06:11:10;5.33;;;3.00;;
7432;SDS011;32233;49.500;7.764;2023-02-26T06:13:38;3.80;;;2.87;;
7432;SDS011;32233;49.500;7.764;2023-02-26T06:16:04;5.60;;;3.30;;
7432;SDS011;32233;49.500;7.764;2023-02-26T06:18:31;3.93;;;2.87;;
7432;SDS011;32233;49.500;7.764;2023-02-26T06:20:59;6.13;;;2.97;;
7432;SDS011;32233;49.500;7.764;2023-02-26T06:23:26;4.03;;;2.93;;
7432;SDS011;32233;49.500;7.764;2023-02-26T06:25:53;5.33;;;2.83;;
7432;SDS011;32233;49.500;7.764;2023-02-26T06:28:20;5.47;;;2.50;;
7432;SDS011;32233;49.500;7.764;2023-02-26T06:30:46;3.90;;;3.23;;
7432;SDS011;32233;49.500;7.764;2023-02-26T06:33:13;5.47;;;3.00;;
7432;SDS011;32233;49.500;7.764;2023-02-26T06:35:40;6.40;;;3.20;;
7432;SDS011;32233;49.500;7.764;2023-02-26T06:38:07;4.50;;;3.07;;
7432;SDS011;32233;49.500;7.764;2023-02-26T06:40:34;5.73;;;2.67;;
7432;SDS011;32233;49.500;7.764;2023-02-26T06:43:01;6.33;;;2.30;;
7432;SDS011;32233;49.500;7.764;2023-02-26T06:45:27;5.63;;;2.33;;
7432;SDS011;32233;49.500;7.764;2023-02-26T06:47:54;4.73;;;2.77;;
7432;SDS011;32233;49.500;7.764;2023-02-26T06:50:21;4.93;;;2.40;;
7432;SDS011;32233;49.500;7.764;2023-02-26T06:52:47;6.30;;;2.23;;
7432;SDS011;32233;49.500;7.764;2023-02-26T06:55:14;3.70;;;2.60;;
7432;SDS011;32233;49.500;7.764;2023-02-26T06:57:40;5.93;;;2.43;;
7432;SDS011;32233;49.500;7.764;2023-02-26T07:00:07;5.20;;;2.67;;
7432;SDS011;32233;49.500;7.764;2023-02-26T07:02:34;3.63;;;2.17;;
7432;SDS011;32233;49.500;7.764;2023-02-26T07:05:01;3.93;;;2.50;;
7432;SDS011;32233;49.500;7.764;2023-02-26T07:07:28;3.33;;;1.93;;
7432;SDS011;32233;49.500;7.764;2023-02-26T07:09:54;5.30;;;2.10;;
7432;SDS011;32233;49.500;7.764;2023-02-26T07:12:21;3.70;;;2.10;;
7432;SDS011;32233;49.500;7.764;2023-02-26T07:14:47;6.17;;;2.17;;
7432;SDS011;32233;49.500;7.764;2023-02-26T07:17:14;3.03;;;2.03;;
7432;SDS011;32233;49.500;7.764;2023-02-26T07:19:49;5.33;;;2.30;;
7432;SDS011;32233;49.500;7.764;2023-02-26T07:22:17;3.03;;;2.13;;
7432;SDS011;32233;49.500;7.764;2023-02-26T07:24:47;6.30;;;1.60;;
7432;SDS011;32233;49.500;7.764;2023-02-26T07:27:14;3.00;;;2.00;;
7432;SDS011;32233;49.500;7.764;2023-02-26T07:29:41;3.00;;;1.97;;
7432;SDS011;32233;49.500;7.764;2023-02-26T07:32:07;5.07;;;1.83;;
7432;SDS011;32233;49.500;7.764;2023-02-26T07:34:34;5.30;;;1.83;;
7432;SDS011;32233;49.500;7.764;2023-02-26T07:37:01;6.17;;;1.67;;
7432;SDS011;32233;49.500;7.764;2023-02-26T07:39:27;4.57;;;1.50;;
7432;SDS011;32233;49.500;7.764;2023-02-26T07:41:54;2.43;;;1.63;;
7432;SDS011;32233;49.500;7.764;2023-02-26T07:44:20;4.60;;;2.20;;
7432;SDS011;32233;49.500;7.764;2023-02-26T07:46:47;4.43;;;1.73;;
7432;SDS011;32233;49.500;7.764;2023-02-26T07:49:13;3.37;;;1.57;;
7432;SDS011;32233;49.500;7.764;2023-02-26T07:51:40;3.50;;;1.60;;
7432;SDS011;32233;49.500;7.764;2023-02-26T07:54:14;5.53;;;2.93;;
7432;SDS011;32233;49.500;7.764;2023-02-26T07:56:40;4.80;;;3.13;;
7432;SDS011;32233;49.500;7.764;2023-02-26T07:59:08;5.37;;;2.47;;
7432;SDS011;32233;49.500;7.764;2023-02-26T08:01:35;4.17;;;2.60;;
7432;SDS011;32233;49.500;7.764;2023-02-26T08:04:02;2.13;;;1.33;;
7432;SDS011;32233;49.500;7.764;2023-02-26T08:06:29;4.47;;;1.67;;
7432;SDS011;32233;49.500;7.764;2023-02-26T08:08:56;1.70;;;1.37;;
7432;SDS011;32233;49.500;7.764;2023-02-26T08:11:22;3.77;;;1.70;;
7432;SDS011;32233;49.500;7.764;2023-02-26T08:13:49;2.77;;;1.60;;
7432;SDS011;32233;49.500;7.764;2023-02-26T08:16:15;3.73;;;1.50;;
7432;SDS011;32233;49.500;7.764;2023-02-26T08:18:42;2.70;;;1.67;;
7432;SDS011;32233;49.500;7.764;2023-02-26T08:21:08;2.77;;;1.70;;
7432;SDS011;32233;49.500;7.764;2023-02-26T08:23:36;3.53;;;1.40;;
7432;SDS011;32233;49.500;7.764;2023-02-26T08:26:05;5.43;;;1.80;;
7432;SDS011;32233;49.500;7.764;2023-02-26T08:28:33;4.30;;;2.93;;
7432;SDS011;32233;49.500;7.764;2023-02-26T08:31:00;2.07;;;1.50;;
7432;SDS011;32233;49.500;7.764;2023-02-26T08:33:27;6.07;;;3.03;;
7432;SDS011;32233;49.500;7.764;2023-02-26T08:35:55;3.87;;;1.40;;
7432;SDS011;32233;49.500;7.764;2023-02-26T08:38:24;3.23;;;2.03;;
7432;SDS011;32233;49.500;7.764;2023-02-26T08:40:52;2.13;;;1.33;;
7432;SDS011;32233;49.500;7.764;2023-02-26T08:43:20;1.90;;;1.70;;
7432;SDS011;32233;49.500;7.764;2023-02-26T08:45:46;1.40;;;1.30;;
7432;SDS011;32233;49.500;7.764;2023-02-26T08:48:13;2.97;;;1.50;;
7432;SDS011;32233;49.500;7.764;2023-02-26T08:50:40;2.10;;;1.57;;
7432;SDS011;32233;49.500;7.764;2023-02-26T08:53:07;1.97;;;1.27;;
7432;SDS011;32233;49.500;7.764;2023-02-26T08:55:33;2.97;;;1.30;;
7432;SDS011;32233;49.500;7.764;2023-02-26T08:58:00;1.70;;;1.13;;
7432;SDS011;32233;49.500;7.764;2023-02-26T09:00:27;1.63;;;1.53;;
7432;SDS011;32233;49.500;7.764;2023-02-26T09:02:53;2.90;;;1.37;;
7432;SDS011;32233;49.500;7.764;2023-02-26T09:05:20;2.07;;;1.40;;
7432;SDS011;32233;49.500;7.764;2023-02-26T09:07:47;2.67;;;1.60;;
7432;SDS011;32233;49.500;7.764;2023-02-26T09:10:14;6.47;;;1.50;;
7432;SDS011;32233;49.500;7.764;2023-02-26T09:12:41;2.20;;;1.27;;
7432;SDS011;32233;49.500;7.764;2023-02-26T09:15:09;3.87;;;1.40;;
7432;SDS011;32233;49.500;7.764;2023-02-26T09:17:36;2.40;;;1.80;;
7432;SDS011;32233;49.500;7.764;2023-02-26T09:20:04;2.20;;;1.60;;
7432;SDS011;32233;49.500;7.764;2023-02-26T09:22:31;1.37;;;1.20;;
7432;SDS011;32233;49.500;7.764;2023-02-26T09:24:58;2.40;;;1.50;;
7432;SDS011;32233;49.500;7.764;2023-02-26T09:27:25;2.60;;;1.30;;
7432;SDS011;32233;49.500;7.764;2023-02-26T09:29:52;2.73;;;1.20;;
7432;SDS011;32233;49.500;7.764;2023-02-26T09:32:18;3.07;;;1.50;;
7432;SDS011;32233;49.500;7.764;2023-02-26T09:34:45;2.73;;;1.40;;
7432;SDS011;32233;49.500;7.764;2023-02-26T09:37:12;2.97;;;1.50;;
7432;SDS011;32233;49.500;7.764;2023-02-26T09:39:38;2.40;;;1.53;;
7432;SDS011;32233;49.500;7.764;2023-02-26T09:44:37;2.30;;;1.30;;
7432;SDS011;32233;49.500;7.764;2023-02-26T09:52:28;3.77;;;2.20;;
7432;SDS011;32233;49.500;7.764;2023-02-26T09:55:23;3.07;;;1.50;;
7432;SDS011;32233;49.500;7.764;2023-02-26T09:58:01;2.27;;;1.50;;
7432;SDS011;32233;49.500;7.764;2023-02-26T10:00:35;3.53;;;1.30;;
7432;SDS011;32233;49.500;7.764;2023-02-26T10:03:19;2.17;;;1.40;;
7432;SDS011;32233;49.500;7.764;2023-02-26T10:06:04;1.10;;;1.10;;
7432;SDS011;32233;49.500;7.764;2023-02-26T10:08:46;1.73;;;1.30;;
7432;SDS011;32233;49.500;7.764;2023-02-26T10:11:23;1.50;;;1.40;;
7432;SDS011;32233;49.500;7.764;2023-02-26T10:13:57;2.50;;;1.50;;
7432;SDS011;32233;49.500;7.764;2023-02-26T10:16:32;2.87;;;1.77;;
7432;SDS011;32233;49.500;7.764;2023-02-26T10:19:03;1.87;;;1.37;;
7432;SDS011;32233;49.500;7.764;2023-02-26T10:24:21;7.27;;;1.83;;
7432;SDS011;32233;49.500;7.764;2023-02-26T10:26:57;2.60;;;1.50;;
7432;SDS011;32233;49.500;7.764;2023-02-26T10:29:35;3.03;;;1.70;;
7432;SDS011;32233;49.500;7.764;2023-02-26T10:35:02;2.47;;;1.30;;
7432;SDS011;32233;49.500;7.764;2023-02-26T10:43:17;1.80;;;1.40;;
7432;SDS011;32233;49.500;7.764;2023-02-26T10:46:24;3.17;;;2.10;;
7432;SDS011;32233;49.500;7.764;2023-02-26T10:51:34;2.90;;;1.40;;
7432;SDS011;32233;49.500;7.764;2023-02-26T10:54:05;2.17;;;1.60;;
7432;SDS011;32233;49.500;7.764;2023-02-26T10:56:41;1.80;;;1.70;;
7432;SDS011;32233;49.500;7.764;2023-02-26T10:59:08;1.70;;;1.17;;
7432;SDS011;32233;49.500;7.764;2023-02-26T11:01:35;1.63;;;1.50;;
7432;SDS011;32233;49.500;7.764;2023-02-26T11:04:03;3.43;;;1.43;;
7432;SDS011;32233;49.500;7.764;2023-02-26T11:06:36;1.70;;;1.30;;
7432;SDS011;32233;49.500;7.764;2023-02-26T11:09:15;1.83;;;1.30;;
7432;SDS011;32233;49.500;7.764;2023-02-26T11:12:12;2.30;;;1.23;;
7432;SDS011;32233;49.500;7.764;2023-02-26T11:14:41;1.57;;;1.40;;
7432;SDS011;32233;49.500;7.764;2023-02-26T11:17:09;1.73;;;1.30;;
7432;SDS011;32233;49.500;7.764;2023-02-26T11:19:41;1.50;;;1.10;;
7432;SDS011;32233;49.500;7.764;2023-02-26T11:22:13;4.90;;;1.70;;
7432;SDS011;32233;49.500;7.764;2023-02-26T11:24:42;2.33;;;1.67;;
7432;SDS011;32233;49.500;7.764;2023-02-26T11:27:17;2.77;;;1.53;;
7432;SDS011;32233;49.500;7.764;2023-02-26T11:29:46;2.23;;;1.30;;
7432;SDS011;32233;49.500;7.764;2023-02-26T11:32:19;2.73;;;1.10;;
7432;SDS011;32233;49.500;7.764;2023-02-26T11:34:49;1.80;;;1.33;;
7432;SDS011;32233;49.500;7.764;2023-02-26T11:37:22;1.97;;;1.37;;
7432;SDS011;32233;49.500;7.764;2023-02-26T11:39:56;1.20;;;1.10;;
7432;SDS011;32233;49.500;7.764;2023-02-26T11:42:25;2.87;;;1.30;;
7432;SDS011;32233;49.500;7.764;2023-02-26T11:44:53;3.13;;;1.13;;
7432;SDS011;32233;49.500;7.764;2023-02-26T11:47:22;1.47;;;1.30;;
7432;SDS011;32233;49.500;7.764;2023-02-26T11:49:52;2.47;;;1.73;;
7432;SDS011;32233;49.500;7.764;2023-02-26T11:55:17;2.00;;;1.63;;
7432;SDS011;32233;49.500;7.764;2023-02-26T11:58:20;3.13;;;1.77;;
7432;SDS011;32233;49.500;7.764;2023-02-26T12:00:52;4.00;;;1.93;;
7432;SDS011;32233;49.500;7.764;2023-02-26T12:03:20;2.03;;;1.87;;
7432;SDS011;32233;49.500;7.764;2023-02-26T12:05:49;3.57;;;1.67;;
7432;SDS011;32233;49.500;7.764;2023-02-26T12:08:36;2.40;;;1.60;;
7432;SDS011;32233;49.500;7.764;2023-02-26T12:11:10;1.50;;;1.40;;
7432;SDS011;32233;49.500;7.764;2023-02-26T12:22:22;2.23;;;1.40;;
7432;SDS011;32233;49.500;7.764;2023-02-26T12:25:34;1.23;;;1.10;;
7432;SDS011;32233;49.500;7.764;2023-02-26T12:37:03;1.53;;;1.20;;
7432;SDS011;32233;49.500;7.764;2023-02-26T12:39:44;2.03;;;1.40;;
7432;SDS011;32233;49.500;7.764;2023-02-26T12:42:48;2.83;;;1.40;;
7432;SDS011;32233;49.500;7.764;2023-02-26T12:45:38;1.40;;;1.30;;
7432;SDS011;32233;49.500;7.764;2023-02-26T13:10:31;1.53;;;1.33;;
7432;SDS011;32233;49.500;7.764;2023-02-26T13:16:08;1.30;;;1.10;;
7432;SDS011;32233;49.500;7.764;2023-02-26T13:18:58;1.10;;;1.00;;
7432;SDS011;32233;49.500;7.764;2023-02-26T13:21:27;1.13;;;0.90;;
7432;SDS011;32233;49.500;7.764;2023-02-26T13:26:37;1.37;;;1.00;;
7432;SDS011;32233;49.500;7.764;2023-02-26T13:29:12;1.70;;;0.87;;
7432;SDS011;32233;49.500;7.764;2023-02-26T13:31:44;2.00;;;0.90;;
7432;SDS011;32233;49.500;7.764;2023-02-26T13:34:18;1.07;;;0.80;;
7432;SDS011;32233;49.500;7.764;2023-02-26T13:36:52;1.63;;;0.80;;
7432;SDS011;32233;49.500;7.764;2023-02-26T13:39:31;1.23;;;1.03;;
7432;SDS011;32233;49.500;7.764;2023-02-26T13:42:17;2.60;;;1.03;;
7432;SDS011;32233;49.500;7.764;2023-02-26T13:47:39;2.33;;;0.90;;
7432;SDS011;32233;49.500;7.764;2023-02-26T13:50:29;1.00;;;0.90;;
7432;SDS011;32233;49.500;7.764;2023-02-26T13:58:42;0.80;;;0.80;;
7432;SDS011;32233;49.500;7.764;2023-02-26T14:01:14;1.23;;;0.50;;
7432;SDS011;32233;49.500;7.764;2023-02-26T14:04:05;1.60;;;0.70;;
7432;SDS011;32233;49.500;7.764;2023-02-26T14:06:40;1.33;;;0.70;;
7432;SDS011;32233;49.500;7.764;2023-02-26T14:09:43;0.73;;;0.63;;
7432;SDS011;32233;49.500;7.764;2023-02-26T14:14:39;1.97;;;0.63;;
7432;SDS011;32233;49.500;7.764;2023-02-26T14:22:27;4.10;;;0.73;;
7432;SDS011;32233;49.500;7.764;2023-02-26T14:25:15;1.30;;;0.50;;
7432;SDS011;32233;49.500;7.764;2023-02-26T14:27:46;4.17;;;0.90;;
7432;SDS011;32233;49.500;7.764;2023-02-26T14:30:15;0.93;;;0.67;;
7432;SDS011;32233;49.500;7.764;2023-02-26T14:35:17;0.70;;;0.60;;
7432;SDS011;32233;49.500;7.764;2023-02-26T14:37:57;1.17;;;0.50;;
7432;SDS011;32233;49.500;7.764;2023-02-26T14:40:34;0.73;;;0.73;;
7432;SDS011;32233;49.500;7.764;2023-02-26T14:43:05;1.57;;;0.80;;
7432;SDS011;32233;49.500;7.764;2023-02-26T14:45:40;0.77;;;0.70;;
7432;SDS011;32233;49.500;7.764;2023-02-26T14:48:14;0.70;;;0.60;;
7432;SDS011;32233;49.500;7.764;2023-02-26T14:50:45;0.90;;;0.90;;
7432;SDS011;32233;49.500;7.764;2023-02-26T14:53:36;3.63;;;0.90;;
7432;SDS011;32233;49.500;7.764;2023-02-26T15:01:50;1.07;;;0.80;;
7432;SDS011;32233;49.500;7.764;2023-02-26T15:04:21;2.47;;;0.70;;
7432;SDS011;32233;49.500;7.764;2023-02-26T15:07:10;2.40;;;0.63;;
7432;SDS011;32233;49.500;7.764;2023-02-26T15:18:18;2.30;;;1.17;;
7432;SDS011;32233;49.500;7.764;2023-02-26T15:21:27;1.90;;;1.10;;
7432;SDS011;32233;49.500;7.764;2023-02-26T15:23:57;1.90;;;1.43;;
7432;SDS011;32233;49.500;7.764;2023-02-26T15:26:28;2.23;;;0.63;;
7432;SDS011;32233;49.500;7.764;2023-02-26T15:28:58;0.90;;;0.80;;
7432;SDS011;32233;49.500;7.764;2023-02-26T15:31:30;1.13;;;0.77;;
7432;SDS011;32233;49.500;7.764;2023-02-26T15:34:00;1.03;;;0.90;;
7432;SDS011;32233;49.500;7.764;2023-02-26T15:36:29;0.93;;;0.80;;
7432;SDS011;32233;49.500;7.764;2023-02-26T15:38:58;2.50;;;1.20;;
7432;SDS011;32233;49.500;7.764;2023-02-26T15:41:28;0.97;;;0.87;;
7432;SDS011;32233;49.500;7.764;2023-02-26T15:43:57;2.13;;;1.30;;
7432;SDS011;32233;49.500;7.764;2023-02-26T15:46:31;2.17;;;1.10;;
7432;SDS011;32233;49.500;7.764;2023-02-26T15:49:06;1.97;;;1.00;;
7432;SDS011;32233;49.500;7.764;2023-02-26T15:51:37;2.60;;;1.20;;
7432;SDS011;32233;49.500;7.764;2023-02-26T15:54:04;1.20;;;0.70;;
7432;SDS011;32233;49.500;7.764;2023-02-26T15:56:33;1.90;;;0.80;;
7432;SDS011;32233;49.500;7.764;2023-02-26T15:59:05;1.17;;;0.60;;
7432;SDS011;32233;49.500;7.764;2023-02-26T16:01:36;0.90;;;0.80;;
7432;SDS011;32233;49.500;7.764;2023-02-26T16:04:07;1.80;;;0.83;;
7432;SDS011;32233;49.500;7.764;2023-02-26T16:06:39;1.70;;;1.07;;
7432;SDS011;32233;49.500;7.764;2023-02-26T16:09:14;1.33;;;0.80;;
7432;SDS011;32233;49.500;7.764;2023-02-26T16:11:45;1.00;;;0.80;;
7432;SDS011;32233;49.500;7.764;2023-02-26T16:14:19;1.37;;;0.80;;
7432;SDS011;32233;49.500;7.764;2023-02-26T16:16:50;1.40;;;0.80;;
7432;SDS011;32233;49.500;7.764;2023-02-26T16:19:41;1.83;;;0.90;;
7432;SDS011;32233;49.500;7.764;2023-02-26T16:24:49;0.90;;;0.80;;
7432;SDS011;32233;49.500;7.764;2023-02-26T16:27:19;3.67;;;2.00;;
7432;SDS011;32233;49.500;7.764;2023-02-26T16:29:49;3.67;;;1.13;;
7432;SDS011;32233;49.500;7.764;2023-02-26T16:32:16;2.07;;;1.30;;
7432;SDS011;32233;49.500;7.764;2023-02-26T16:39:43;1.50;;;1.00;;
7432;SDS011;32233;49.500;7.764;2023-02-26T16:42:14;2.60;;;1.00;;
7432;SDS011;32233;49.500;7.764;2023-02-26T16:47:17;0.93;;;0.73;;
7432;SDS011;32233;49.500;7.764;2023-02-26T16:49:45;1.67;;;1.00;;
7432;SDS011;32233;49.500;7.764;2023-02-26T16:52:15;1.20;;;1.00;;
7432;SDS011;32233;49.500;7.764;2023-02-26T16:54:47;3.27;;;1.10;;
7432;SDS011;32233;49.500;7.764;2023-02-26T16:57:32;0.90;;;0.90;;
7432;SDS011;32233;49.500;7.764;2023-02-26T17:00:04;1.30;;;0.97;;
7432;SDS011;32233;49.500;7.764;2023-02-26T17:02:34;2.93;;;1.07;;
7432;SDS011;32233;49.500;7.764;2023-02-26T17:05:13;1.93;;;1.07;;
7432;SDS011;32233;49.500;7.764;2023-02-26T17:07:51;0.90;;;0.90;;
7432;SDS011;32233;49.500;7.764;2023-02-26T17:13:24;1.60;;;1.10;;
7432;SDS011;32233;49.500;7.764;2023-02-26T17:15:54;1.00;;;0.80;;
7432;SDS011;32233;49.500;7.764;2023-02-26T17:18:24;1.40;;;0.80;;
7432;SDS011;32233;49.500;7.764;2023-02-26T17:20:51;0.70;;;0.70;;
7432;SDS011;32233;49.500;7.764;2023-02-26T17:23:18;1.13;;;1.03;;
7432;SDS011;32233;49.500;7.764;2023-02-26T17:25:48;1.23;;;0.70;;
7432;SDS011;32233;49.500;7.764;2023-02-26T17:28:21;7.07;;;5.03;;
7432;SDS011;32233;49.500;7.764;2023-02-26T17:30:53;5.47;;;5.07;;
7432;SDS011;32233;49.500;7.764;2023-02-26T17:33:20;1.63;;;1.13;;
7432;SDS011;32233;49.500;7.764;2023-02-26T17:35:47;1.07;;;0.70;;
7432;SDS011;32233;49.500;7.764;2023-02-26T17:38:14;2.63;;;1.20;;
7432;SDS011;32233;49.500;7.764;2023-02-26T17:40:42;1.30;;;1.20;;
7432;SDS011;32233;49.500;7.764;2023-02-26T17:43:10;2.13;;;0.90;;
7432;SDS011;32233;49.500;7.764;2023-02-26T17:45:37;1.50;;;1.40;;
7432;SDS011;32233;49.500;7.764;2023-02-26T17:48:05;1.43;;;1.30;;
7432;SDS011;32233;49.500;7.764;2023-02-26T17:53:19;1.73;;;1.60;;
7432;SDS011;32233;49.500;7.764;2023-02-26T17:55:48;4.60;;;4.17;;